sensor_id;sensor_type;location;lat;lon;timestamp;P1;durP1;ratioP1;P2;durP2;ratioP2
1533;SDS011;760;48.822;9.304;2022-09-29T04:04:58;4.35;;;2.90;;
1533;SDS011;760;48.822;9.304;2022-09-29T04:07:24;3.40;;;3.17;;
1533;SDS011;760;48.822;9.304;2022-09-29T04:09:49;4.13;;;2.97;;
1533;SDS011;760;48.822;9.304;2022-09-29T04:12:15;2.50;;;2.30;;
1533;SDS011;760;48.822;9.304;2022-09-29T04:14:40;6.00;;;3.10;;
1533;SDS011;760;48.822;9.304;2022-09-29T04:17:06;3.87;;;3.57;;
1533;SDS011;760;48.822;9.304;2022-09-29T04:19:31;3.90;;;2.30;;
1533;SDS011;760;48.822;9.304;2022-09-29T04:21:57;3.90;;;3.10;;
1533;SDS011;760;48.822;9.304;2022-09-29T04:24:23;2.87;;;2.57;;
1533;SDS011;760;48.822;9.304;2022-09-29T04:26:48;4.60;;;3.10;;
1533;SDS011;760;48.822;9.304;2022-09-29T04:29:14;2.70;;;2.50;;
1533;SDS011;760;48.822;9.304;2022-09-29T04:31:39;3.07;;;2.77;;
1533;SDS011;760;48.822;9.304;2022-09-29T04:34:05;3.90;;;3.60;;
1533;SDS011;760;48.822;9.304;2022-09-29T04:36:30;3.10;;;2.80;;
1533;SDS011;760;48.822;9.304;2022-09-29T04:38:56;3.10;;;2.43;;
1533;SDS011;760;48.822;9.304;2022-09-29T04:41:22;3.40;;;2.80;;
1533;SDS011;760;48.822;9.304;2022-09-29T04:43:47;2.90;;;2.60;;
1533;SDS011;760;48.822;9.304;2022-09-29T04:46:13;9.70;;;3.03;;
1533;SDS011;760;48.822;9.304;2022-09-29T04:48:39;5.00;;;3.57;;
1533;SDS011;760;48.822;9.304;2022-09-29T04:51:05;4.80;;;2.73;;
1533;SDS011;760;48.822;9.304;2022-09-29T04:53:32;3.95;;;3.00;;
1533;SDS011;760;48.822;9.304;2022-09-29T04:55:57;3.47;;;3.10;;
1533;SDS011;760;48.822;9.304;2022-09-29T04:58:23;4.13;;;3.83;;
1533;SDS011;760;48.822;9.304;2022-09-29T05:00:49;4.40;;;3.63;;
1533;SDS011;760;48.822;9.304;2022-09-29T05:03:14;5.57;;;3.53;;
1533;SDS011;760;48.822;9.304;2022-09-29T05:05:40;4.20;;;3.20;;
1533;SDS011;760;48.822;9.304;2022-09-29T05:08:06;3.10;;;2.90;;
1533;SDS011;760;48.822;9.304;2022-09-29T05:10:31;3.50;;;3.00;;
1533;SDS011;760;48.822;9.304;2022-09-29T05:12:57;3.30;;;2.50;;
1533;SDS011;760;48.822;9.304;2022-09-29T05:15:22;3.60;;;2.87;;
1533;SDS011;760;48.822;9.304;2022-09-29T05:17:48;3.90;;;3.10;;
1533;SDS011;760;48.822;9.304;2022-09-29T05:20:14;3.10;;;2.80;;
1533;SDS011;760;48.822;9.304;2022-09-29T05:22:40;3.10;;;2.75;;
1533;SDS011;760;48.822;9.304;2022-09-29T05:25:06;5.03;;;3.38;;
1533;SDS011;760;48.822;9.304;2022-09-29T05:27:33;3.88;;;3.17;;
1533;SDS011;760;48.822;9.304;2022-09-29T05:30:00;4.45;;;2.95;;
1533;SDS011;760;48.822;9.304;2022-09-29T05:32:26;3.42;;;3.13;;
1533;SDS011;760;48.822;9.304;2022-09-29T05:34:51;3.50;;;3.20;;
1533;SDS011;760;48.822;9.304;2022-09-29T05:37:17;3.50;;;3.10;;
1533;SDS011;760;48.822;9.304;2022-09-29T05:39:43;2.87;;;2.60;;
1533;SDS011;760;48.822;9.304;2022-09-29T05:42:09;2.90;;;2.70;;
1533;SDS011;760;48.822;9.304;2022-09-29T05:44:35;3.60;;;3.30;;
1533;SDS011;760;48.822;9.304;2022-09-29T05:47:01;3.33;;;3.03;;
1533;SDS011;760;48.822;9.304;2022-09-29T05:49:27;4.43;;;2.80;;
1533;SDS011;760;48.822;9.304;2022-09-29T05:51:54;4.60;;;2.90;;
1533;SDS011;760;48.822;9.304;2022-09-29T05:54:21;4.30;;;2.53;;
1533;SDS011;760;48.822;9.304;2022-09-29T05:56:47;3.85;;;3.38;;
1533;SDS011;760;48.822;9.304;2022-09-29T05:59:13;3.90;;;3.50;;
1533;SDS011;760;48.822;9.304;2022-09-29T06:01:39;6.00;;;4.10;;
1533;SDS011;760;48.822;9.304;2022-09-29T06:04:05;3.27;;;3.00;;
1533;SDS011;760;48.822;9.304;2022-09-29T06:06:30;4.00;;;3.50;;
1533;SDS011;760;48.822;9.304;2022-09-29T06:08:56;4.97;;;3.30;;
1533;SDS011;760;48.822;9.304;2022-09-29T06:11:23;5.13;;;3.30;;
1533;SDS011;760;48.822;9.304;2022-09-29T06:13:51;3.47;;;2.83;;
1533;SDS011;760;48.822;9.304;2022-09-29T06:16:19;4.18;;;3.30;;
1533;SDS011;760;48.822;9.304;2022-09-29T06:18:47;3.80;;;2.85;;
1533;SDS011;760;48.822;9.304;2022-09-29T06:21:14;4.38;;;3.25;;
1533;SDS011;760;48.822;9.304;2022-09-29T06:23:42;8.45;;;5.80;;
1533;SDS011;760;48.822;9.304;2022-09-29T06:26:10;3.38;;;3.00;;
1533;SDS011;760;48.822;9.304;2022-09-29T06:28:37;3.70;;;3.40;;
1533;SDS011;760;48.822;9.304;2022-09-29T06:31:07;3.72;;;2.90;;
1533;SDS011;760;48.822;9.304;2022-09-29T06:33:38;4.05;;;3.15;;
1533;SDS011;760;48.822;9.304;2022-09-29T06:36:46;3.00;;;2.60;;
1533;SDS011;760;48.822;9.304;2022-09-29T06:39:19;3.30;;;3.00;;
1533;SDS011;760;48.822;9.304;2022-09-29T06:41:45;4.73;;;3.17;;
1533;SDS011;760;48.822;9.304;2022-09-29T06:44:18;5.47;;;3.38;;
1533;SDS011;760;48.822;9.304;2022-09-29T06:46:44;3.13;;;2.80;;
1533;SDS011;760;48.822;9.304;2022-09-29T06:49:10;4.23;;;2.83;;
1533;SDS011;760;48.822;9.304;2022-09-29T06:51:37;4.70;;;3.05;;
1533;SDS011;760;48.822;9.304;2022-09-29T06:54:02;2.37;;;2.17;;
1533;SDS011;760;48.822;9.304;2022-09-29T06:56:28;5.80;;;3.60;;
1533;SDS011;760;48.822;9.304;2022-09-29T06:58:54;2.37;;;2.27;;
1533;SDS011;760;48.822;9.304;2022-09-29T07:01:19;2.80;;;2.60;;
1533;SDS011;760;48.822;9.304;2022-09-29T07:03:45;2.57;;;2.37;;
1533;SDS011;760;48.822;9.304;2022-09-29T07:06:10;2.50;;;2.10;;
1533;SDS011;760;48.822;9.304;2022-09-29T07:08:36;4.20;;;2.80;;
1533;SDS011;760;48.822;9.304;2022-09-29T07:11:04;3.08;;;2.88;;
1533;SDS011;760;48.822;9.304;2022-09-29T07:13:34;2.60;;;2.40;;
1533;SDS011;760;48.822;9.304;2022-09-29T07:16:06;2.22;;;2.10;;
1533;SDS011;760;48.822;9.304;2022-09-29T07:18:35;2.85;;;2.42;;
1533;SDS011;760;48.822;9.304;2022-09-29T07:21:04;3.55;;;2.75;;
1533;SDS011;760;48.822;9.304;2022-09-29T07:23:32;2.60;;;2.35;;
1533;SDS011;760;48.822;9.304;2022-09-29T07:25:57;2.53;;;2.38;;
1533;SDS011;760;48.822;9.304;2022-09-29T07:28:23;3.63;;;2.90;;
1533;SDS011;760;48.822;9.304;2022-09-29T07:30:59;3.53;;;2.50;;
1533;SDS011;760;48.822;9.304;2022-09-29T07:33:24;2.60;;;2.40;;
1533;SDS011;760;48.822;9.304;2022-09-29T07:35:53;3.20;;;2.90;;
1533;SDS011;760;48.822;9.304;2022-09-29T07:38:19;5.72;;;2.78;;
1533;SDS011;760;48.822;9.304;2022-09-29T07:40:45;2.77;;;2.57;;
1533;SDS011;760;48.822;9.304;2022-09-29T07:43:10;5.80;;;3.23;;
1533;SDS011;760;48.822;9.304;2022-09-29T07:45:36;3.17;;;2.87;;
1533;SDS011;760;48.822;9.304;2022-09-29T07:48:02;3.43;;;3.07;;
1533;SDS011;760;48.822;9.304;2022-09-29T07:50:28;3.50;;;2.63;;
1533;SDS011;760;48.822;9.304;2022-09-29T07:52:53;4.10;;;3.37;;
1533;SDS011;760;48.822;9.304;2022-09-29T07:55:19;5.30;;;4.80;;
1533;SDS011;760;48.822;9.304;2022-09-29T07:57:47;6.20;;;4.17;;
1533;SDS011;760;48.822;9.304;2022-09-29T08:00:13;6.50;;;4.53;;
1533;SDS011;760;48.822;9.304;2022-09-29T08:02:41;8.30;;;5.73;;
1533;SDS011;760;48.822;9.304;2022-09-29T08:05:07;5.90;;;5.27;;
1533;SDS011;760;48.822;9.304;2022-09-29T08:07:33;6.77;;;6.17;;
1533;SDS011;760;48.822;9.304;2022-09-29T08:09:59;7.20;;;4.43;;
1533;SDS011;760;48.822;9.304;2022-09-29T08:12:25;3.63;;;3.33;;
1533;SDS011;760;48.822;9.304;2022-09-29T08:14:51;3.60;;;2.47;;
1533;SDS011;760;48.822;9.304;2022-09-29T08:17:16;3.70;;;3.07;;
1533;SDS011;760;48.822;9.304;2022-09-29T08:19:42;2.87;;;2.60;;
1533;SDS011;760;48.822;9.304;2022-09-29T08:22:08;3.07;;;2.80;;
1533;SDS011;760;48.822;9.304;2022-09-29T08:24:33;2.43;;;2.23;;
1533;SDS011;760;48.822;9.304;2022-09-29T08:27:01;4.13;;;2.30;;
1533;SDS011;760;48.822;9.304;2022-09-29T08:29:29;4.50;;;2.83;;
1533;SDS011;760;48.822;9.304;2022-09-29T08:31:54;3.30;;;3.00;;
1533;SDS011;760;48.822;9.304;2022-09-29T08:34:20;3.83;;;3.40;;
1533;SDS011;760;48.822;9.304;2022-09-29T08:36:46;4.70;;;3.70;;
1533;SDS011;760;48.822;9.304;2022-09-29T08:39:12;3.40;;;3.13;;
1533;SDS011;760;48.822;9.304;2022-09-29T08:46:46;2.57;;;2.37;;
1533;SDS011;760;48.822;9.304;2022-09-29T08:49:25;2.43;;;2.20;;
1533;SDS011;760;48.822;9.304;2022-09-29T08:52:03;3.30;;;3.00;;
1533;SDS011;760;48.822;9.304;2022-09-29T08:54:34;3.20;;;2.90;;
1533;SDS011;760;48.822;9.304;2022-09-29T08:57:04;4.60;;;3.40;;
1533;SDS011;760;48.822;9.304;2022-09-29T08:59:30;3.43;;;2.30;;
1533;SDS011;760;48.822;9.304;2022-09-29T09:17:58;5.60;;;2.70;;
1533;SDS011;760;48.822;9.304;2022-09-29T09:26:17;1.70;;;1.60;;
1533;SDS011;760;48.822;9.304;2022-09-29T09:31:34;1.90;;;1.67;;
1533;SDS011;760;48.822;9.304;2022-09-29T09:36:38;1.97;;;1.87;;
1533;SDS011;760;48.822;9.304;2022-09-29T09:39:21;2.70;;;2.50;;
1533;SDS011;760;48.822;9.304;2022-09-29T09:41:55;2.50;;;2.40;;
1533;SDS011;760;48.822;9.304;2022-09-29T09:44:28;3.00;;;2.30;;
1533;SDS011;760;48.822;9.304;2022-09-29T09:50:14;2.10;;;2.00;;
1533;SDS011;760;48.822;9.304;2022-09-29T09:52:44;1.70;;;1.60;;
1533;SDS011;760;48.822;9.304;2022-09-29T09:55:16;2.00;;;1.90;;
1533;SDS011;760;48.822;9.304;2022-09-29T10:03:22;2.53;;;2.40;;
1533;SDS011;760;48.822;9.304;2022-09-29T10:05:48;3.63;;;2.50;;
1533;SDS011;760;48.822;9.304;2022-09-29T10:08:22;1.97;;;1.87;;
1533;SDS011;760;48.822;9.304;2022-09-29T10:10:50;2.37;;;2.17;;
1533;SDS011;760;48.822;9.304;2022-09-29T10:13:16;2.07;;;1.90;;
1533;SDS011;760;48.822;9.304;2022-09-29T10:18:31;2.90;;;2.70;;
1533;SDS011;760;48.822;9.304;2022-09-29T10:21:03;3.27;;;2.10;;
1533;SDS011;760;48.822;9.304;2022-09-29T10:23:46;3.47;;;3.17;;
1533;SDS011;760;48.822;9.304;2022-09-29T10:26:16;2.50;;;1.93;;
1533;SDS011;760;48.822;9.304;2022-09-29T10:28:51;2.37;;;2.17;;
1533;SDS011;760;48.822;9.304;2022-09-29T10:31:40;1.90;;;1.80;;
1533;SDS011;760;48.822;9.304;2022-09-29T10:36:45;4.03;;;2.40;;
1533;SDS011;760;48.822;9.304;2022-09-29T10:41:58;2.17;;;1.53;;
1533;SDS011;760;48.822;9.304;2022-09-29T10:44:24;1.73;;;1.63;;
1533;SDS011;760;48.822;9.304;2022-09-29T10:46:55;2.33;;;2.23;;
1533;SDS011;760;48.822;9.304;2022-09-29T10:49:23;1.80;;;1.70;;
1533;SDS011;760;48.822;9.304;2022-09-29T10:52:03;2.50;;;1.77;;
1533;SDS011;760;48.822;9.304;2022-09-29T10:54:32;2.80;;;2.60;;
1533;SDS011;760;48.822;9.304;2022-09-29T10:57:10;2.10;;;2.00;;
1533;SDS011;760;48.822;9.304;2022-09-29T10:59:46;4.27;;;2.30;;
1533;SDS011;760;48.822;9.304;2022-09-29T11:02:20;2.30;;;2.20;;
1533;SDS011;760;48.822;9.304;2022-09-29T11:04:55;2.20;;;2.00;;
1533;SDS011;760;48.822;9.304;2022-09-29T11:07:25;4.77;;;3.07;;
1533;SDS011;760;48.822;9.304;2022-09-29T11:09:51;1.70;;;1.60;;
1533;SDS011;760;48.822;9.304;2022-09-29T11:14:55;2.37;;;2.17;;
1533;SDS011;760;48.822;9.304;2022-09-29T11:17:36;2.50;;;2.30;;
1533;SDS011;760;48.822;9.304;2022-09-29T11:20:03;1.93;;;1.83;;
1533;SDS011;760;48.822;9.304;2022-09-29T11:33:28;3.13;;;1.83;;
1533;SDS011;760;48.822;9.304;2022-09-29T11:36:07;2.87;;;1.60;;
1533;SDS011;760;48.822;9.304;2022-09-29T11:38:48;1.53;;;1.43;;
1533;SDS011;760;48.822;9.304;2022-09-29T11:44:36;1.37;;;1.30;;
1533;SDS011;760;48.822;9.304;2022-09-29T11:57:58;1.90;;;1.10;;
1533;SDS011;760;48.822;9.304;2022-09-29T12:17:31;1.83;;;1.47;;
1533;SDS011;760;48.822;9.304;2022-09-29T12:20:05;1.63;;;1.50;;
1533;SDS011;760;48.822;9.304;2022-09-29T12:22:41;1.07;;;0.97;;
1533;SDS011;760;48.822;9.304;2022-09-29T12:25:12;1.23;;;1.00;;
1533;SDS011;760;48.822;9.304;2022-09-29T12:27:44;1.00;;;1.00;;
1533;SDS011;760;48.822;9.304;2022-09-29T12:30:22;1.03;;;0.90;;
1533;SDS011;760;48.822;9.304;2022-09-29T12:35:45;1.20;;;1.10;;
1533;SDS011;760;48.822;9.304;2022-09-29T12:38:51;11.63;;;1.70;;
1533;SDS011;760;48.822;9.304;2022-09-29T12:41:24;1.30;;;1.30;;
1533;SDS011;760;48.822;9.304;2022-09-29T12:43:59;1.77;;;1.60;;
1533;SDS011;760;48.822;9.304;2022-09-29T12:46:33;1.60;;;1.20;;
1533;SDS011;760;48.822;9.304;2022-09-29T12:49:15;1.10;;;1.10;;
1533;SDS011;760;48.822;9.304;2022-09-29T12:51:49;1.53;;;1.43;;
1533;SDS011;760;48.822;9.304;2022-09-29T12:54:33;1.33;;;1.23;;
1533;SDS011;760;48.822;9.304;2022-09-29T12:57:03;1.87;;;0.90;;
1533;SDS011;760;48.822;9.304;2022-09-29T13:13:21;1.33;;;1.20;;
1533;SDS011;760;48.822;9.304;2022-09-29T13:16:06;1.20;;;1.10;;
1533;SDS011;760;48.822;9.304;2022-09-29T13:21:52;1.30;;;1.20;;
1533;SDS011;760;48.822;9.304;2022-09-29T13:24:36;0.93;;;0.90;;
1533;SDS011;760;48.822;9.304;2022-09-29T13:32:39;0.90;;;0.80;;
1533;SDS011;760;48.822;9.304;2022-09-29T13:35:12;1.10;;;1.00;;
1533;SDS011;760;48.822;9.304;2022-09-29T13:37:48;1.13;;;1.10;;
1533;SDS011;760;48.822;9.304;2022-09-29T13:40:25;1.90;;;1.80;;
1533;SDS011;760;48.822;9.304;2022-09-29T13:42:54;1.20;;;1.20;;
1533;SDS011;760;48.822;9.304;2022-09-29T13:47:53;2.20;;;1.53;;
1533;SDS011;760;48.822;9.304;2022-09-29T13:58:28;1.30;;;1.20;;
1533;SDS011;760;48.822;9.304;2022-09-29T14:00:59;1.30;;;1.20;;
1533;SDS011;760;48.822;9.304;2022-09-29T14:03:36;1.67;;;1.40;;
1533;SDS011;760;48.822;9.304;2022-09-29T14:08:44;2.20;;;1.20;;
1533;SDS011;760;48.822;9.304;2022-09-29T14:13:57;1.80;;;1.37;;
1533;SDS011;760;48.822;9.304;2022-09-29T14:25:22;1.80;;;1.47;;
1533;SDS011;760;48.822;9.304;2022-09-29T14:35:30;1.73;;;1.30;;
1533;SDS011;760;48.822;9.304;2022-09-29T14:43:43;2.00;;;1.60;;
1533;SDS011;760;48.822;9.304;2022-09-29T14:49:45;1.83;;;1.73;;
1533;SDS011;760;48.822;9.304;2022-09-29T15:03:26;1.60;;;1.50;;
1533;SDS011;760;48.822;9.304;2022-09-29T15:08:39;4.70;;;2.83;;
1533;SDS011;760;48.822;9.304;2022-09-29T15:13:54;1.90;;;1.40;;
1533;SDS011;760;48.822;9.304;2022-09-29T15:16:23;1.63;;;1.23;;
1533;SDS011;760;48.822;9.304;2022-09-29T15:21:48;1.37;;;1.30;;
1533;SDS011;760;48.822;9.304;2022-09-29T15:24:50;1.27;;;1.27;;
1533;SDS011;760;48.822;9.304;2022-09-29T15:27:31;1.93;;;1.10;;
1533;SDS011;760;48.822;9.304;2022-09-29T15:29:57;1.90;;;1.60;;
1533;SDS011;760;48.822;9.304;2022-09-29T15:32:28;1.70;;;1.60;;
1533;SDS011;760;48.822;9.304;2022-09-29T15:35:15;2.10;;;1.67;;
1533;SDS011;760;48.822;9.304;2022-09-29T15:40:16;2.07;;;1.87;;
1533;SDS011;760;48.822;9.304;2022-09-29T15:42:44;2.80;;;1.80;;
1533;SDS011;760;48.822;9.304;2022-09-29T15:45:31;1.57;;;1.57;;
1533;SDS011;760;48.822;9.304;2022-09-29T15:47:57;4.33;;;2.37;;
1533;SDS011;760;48.822;9.304;2022-09-29T15:50:27;1.33;;;1.23;;
1533;SDS011;760;48.822;9.304;2022-09-29T15:52:55;1.60;;;1.33;;
1533;SDS011;760;48.822;9.304;2022-09-29T15:55:26;1.80;;;1.33;;
1533;SDS011;760;48.822;9.304;2022-09-29T15:57:54;1.40;;;1.30;;
1533;SDS011;760;48.822;9.304;2022-09-29T16:03:02;1.40;;;1.30;;
1533;SDS011;760;48.822;9.304;2022-09-29T16:05:41;1.83;;;1.50;;
1533;SDS011;760;48.822;9.304;2022-09-29T16:10:41;1.87;;;1.60;;
1533;SDS011;760;48.822;9.304;2022-09-29T16:13:17;1.43;;;1.33;;
1533;SDS011;760;48.822;9.304;2022-09-29T16:15:46;1.50;;;1.40;;
1533;SDS011;760;48.822;9.304;2022-09-29T16:20:50;1.90;;;1.77;;
1533;SDS011;760;48.822;9.304;2022-09-29T16:31:26;1.73;;;1.63;;
1533;SDS011;760;48.822;9.304;2022-09-29T16:33:54;3.90;;;2.10;;
1533;SDS011;760;48.822;9.304;2022-09-29T16:36:25;1.87;;;1.77;;
1533;SDS011;760;48.822;9.304;2022-09-29T16:38:52;2.17;;;1.60;;
1533;SDS011;760;48.822;9.304;2022-09-29T16:41:35;2.67;;;1.33;;
1533;SDS011;760;48.822;9.304;2022-09-29T16:46:57;1.70;;;1.60;;
1533;SDS011;760;48.822;9.304;2022-09-29T16:49:53;1.50;;;1.40;;
1533;SDS011;760;48.822;9.304;2022-09-29T16:52:22;5.80;;;2.20;;
1533;SDS011;760;48.822;9.304;2022-09-29T16:55:19;1.80;;;1.70;;
1533;SDS011;760;48.822;9.304;2022-09-29T16:57:56;1.77;;;1.67;;
1533;SDS011;760;48.822;9.304;2022-09-29T17:00:32;1.60;;;1.50;;
1533;SDS011;760;48.822;9.304;2022-09-29T17:02:58;4.03;;;2.00;;
1533;SDS011;760;48.822;9.304;2022-09-29T17:05:29;3.00;;;2.33;;
1533;SDS011;760;48.822;9.304;2022-09-29T17:08:00;3.23;;;2.27;;
1533;SDS011;760;48.822;9.304;2022-09-29T17:10:28;2.27;;;2.07;;
1533;SDS011;760;48.822;9.304;2022-09-29T17:12:54;2.00;;;1.90;;
1533;SDS011;760;48.822;9.304;2022-09-29T17:15:20;2.00;;;1.73;;
1533;SDS011;760;48.822;9.304;2022-09-29T17:17:48;2.30;;;2.20;;
1533;SDS011;760;48.822;9.304;2022-09-29T17:20:18;1.80;;;1.70;;
1533;SDS011;760;48.822;9.304;2022-09-29T17:22:53;1.90;;;1.80;;
1533;SDS011;760;48.822;9.304;2022-09-29T17:25:18;2.30;;;2.13;;
1533;SDS011;760;48.822;9.304;2022-09-29T17:27:44;1.57;;;1.47;;
1533;SDS011;760;48.822;9.304;2022-09-29T17:30:28;2.83;;;2.63;;
1533;SDS011;760;48.822;9.304;2022-09-29T17:32:54;2.73;;;2.53;;
1533;SDS011;760;48.822;9.304;2022-09-29T17:35:23;2.40;;;2.30;;
1533;SDS011;760;48.822;9.304;2022-09-29T17:37:54;2.78;;;2.60;;
1533;SDS011;760;48.822;9.304;2022-09-29T17:40:32;1.87;;;1.73;;
1533;SDS011;760;48.822;9.304;2022-09-29T17:43:08;1.70;;;1.60;;
1533;SDS011;760;48.822;9.304;2022-09-29T17:45:34;5.20;;;2.20;;
1533;SDS011;760;48.822;9.304;2022-09-29T17:48:04;2.17;;;2.00;;
1533;SDS011;760;48.822;9.304;2022-09-29T17:50:31;2.03;;;1.80;;
1533;SDS011;760;48.822;9.304;2022-09-29T17:53:00;2.28;;;2.10;;
1533;SDS011;760;48.822;9.304;2022-09-29T17:55:28;2.23;;;2.03;;
1533;SDS011;760;48.822;9.304;2022-09-29T17:57:55;2.33;;;2.13;;
1533;SDS011;760;48.822;9.304;2022-09-29T18:02:51;1.60;;;1.52;;
1533;SDS011;760;48.822;9.304;2022-09-29T18:05:20;2.13;;;1.70;;
1533;SDS011;760;48.822;9.304;2022-09-29T18:07:50;4.23;;;2.10;;
1533;SDS011;760;48.822;9.304;2022-09-29T18:10:28;1.95;;;1.75;;
1533;SDS011;760;48.822;9.304;2022-09-29T18:12:58;2.85;;;2.10;;
1533;SDS011;760;48.822;9.304;2022-09-29T18:15:24;2.10;;;1.70;;
1533;SDS011;760;48.822;9.304;2022-09-29T18:17:52;2.87;;;2.30;;
1533;SDS011;760;48.822;9.304;2022-09-29T18:20:20;1.90;;;1.73;;
1533;SDS011;760;48.822;9.304;2022-09-29T18:22:47;1.63;;;1.50;;
1533;SDS011;760;48.822;9.304;2022-09-29T18:25:13;2.20;;;2.07;;
1533;SDS011;760;48.822;9.304;2022-09-29T18:27:41;3.27;;;2.13;;
1533;SDS011;760;48.822;9.304;2022-09-29T18:30:15;2.92;;;2.00;;
1533;SDS011;760;48.822;9.304;2022-09-29T18:32:54;2.30;;;2.10;;
1533;SDS011;760;48.822;9.304;2022-09-29T18:35:28;2.60;;;2.40;;
1533;SDS011;760;48.822;9.304;2022-09-29T18:37:56;3.35;;;3.05;;
1533;SDS011;760;48.822;9.304;2022-09-29T18:40:22;2.77;;;2.57;;
1533;SDS011;760;48.822;9.304;2022-09-29T18:42:49;3.37;;;2.63;;
1533;SDS011;760;48.822;9.304;2022-09-29T18:45:23;5.47;;;2.80;;
1533;SDS011;760;48.822;9.304;2022-09-29T18:47:52;2.85;;;2.55;;
1533;SDS011;760;48.822;9.304;2022-09-29T18:50:26;3.35;;;3.00;;
1533;SDS011;760;48.822;9.304;2022-09-29T18:52:54;3.05;;;2.85;;
1533;SDS011;760;48.822;9.304;2022-09-29T18:55:20;3.80;;;2.55;;
1533;SDS011;760;48.822;9.304;2022-09-29T18:57:48;3.28;;;2.97;;
1533;SDS011;760;48.822;9.304;2022-09-29T19:00:15;4.10;;;2.97;;
1533;SDS011;760;48.822;9.304;2022-09-29T19:02:43;4.18;;;2.92;;
1533;SDS011;760;48.822;9.304;2022-09-29T19:05:11;3.17;;;2.97;;
1533;SDS011;760;48.822;9.304;2022-09-29T19:07:41;3.03;;;2.72;;
1533;SDS011;760;48.822;9.304;2022-09-29T19:10:08;3.83;;;2.90;;
1533;SDS011;760;48.822;9.304;2022-09-29T19:12:34;6.60;;;3.95;;
1533;SDS011;760;48.822;9.304;2022-09-29T19:15:00;4.30;;;3.87;;
1533;SDS011;760;48.822;9.304;2022-09-29T19:17:27;4.07;;;3.50;;
1533;SDS011;760;48.822;9.304;2022-09-29T19:19:55;4.30;;;4.00;;
1533;SDS011;760;48.822;9.304;2022-09-29T19:22:21;3.70;;;3.40;;
1533;SDS011;760;48.822;9.304;2022-09-29T19:24:49;3.45;;;3.20;;
1533;SDS011;760;48.822;9.304;2022-09-29T19:27:15;3.83;;;3.53;;
1533;SDS011;760;48.822;9.304;2022-09-29T19:29:41;3.45;;;3.17;;
1533;SDS011;760;48.822;9.304;2022-09-29T19:32:07;6.40;;;5.80;;
1533;SDS011;760;48.822;9.304;2022-09-29T19:34:33;7.10;;;6.30;;
1533;SDS011;760;48.822;9.304;2022-09-29T19:36:58;10.80;;;6.70;;
1533;SDS011;760;48.822;9.304;2022-09-29T19:39:24;8.60;;;5.90;;
1533;SDS011;760;48.822;9.304;2022-09-29T19:41:52;8.48;;;6.32;;
1533;SDS011;760;48.822;9.304;2022-09-29T19:44:18;6.67;;;4.57;;
1533;SDS011;760;48.822;9.304;2022-09-29T19:46:49;4.78;;;4.20;;
1533;SDS011;760;48.822;9.304;2022-09-29T19:49:15;3.67;;;3.38;;
1533;SDS011;760;48.822;9.304;2022-09-29T19:51:41;5.00;;;4.20;;
1533;SDS011;760;48.822;9.304;2022-09-29T19:54:22;4.55;;;4.15;;
1533;SDS011;760;48.822;9.304;2022-09-29T19:56:56;5.22;;;3.60;;
1533;SDS011;760;48.822;9.304;2022-09-29T19:59:25;8.38;;;3.30;;
1533;SDS011;760;48.822;9.304;2022-09-29T20:01:53;3.15;;;2.85;;
1533;SDS011;760;48.822;9.304;2022-09-29T20:04:21;3.92;;;3.63;;
1533;SDS011;760;48.822;9.304;2022-09-29T20:06:47;3.30;;;3.10;;
1533;SDS011;760;48.822;9.304;2022-09-29T20:09:14;3.53;;;3.22;;
1533;SDS011;760;48.822;9.304;2022-09-29T20:11:40;6.78;;;4.43;;
1533;SDS011;760;48.822;9.304;2022-09-29T20:14:10;5.88;;;4.47;;
1533;SDS011;760;48.822;9.304;2022-09-29T20:16:38;4.97;;;4.40;;
1533;SDS011;760;48.822;9.304;2022-09-29T20:19:06;3.85;;;3.55;;
1533;SDS011;760;48.822;9.304;2022-09-29T20:21:34;6.95;;;4.18;;
1533;SDS011;760;48.822;9.304;2022-09-29T20:24:04;4.78;;;4.32;;
1533;SDS011;760;48.822;9.304;2022-09-29T20:26:30;4.90;;;4.50;;
1533;SDS011;760;48.822;9.304;2022-09-29T20:28:56;5.80;;;4.32;;
1533;SDS011;760;48.822;9.304;2022-09-29T20:31:27;4.85;;;4.40;;
1533;SDS011;760;48.822;9.304;2022-09-29T20:33:55;5.65;;;4.32;;
1533;SDS011;760;48.822;9.304;2022-09-29T20:36:20;5.43;;;3.97;;
1533;SDS011;760;48.822;9.304;2022-09-29T20:38:46;5.07;;;4.47;;
1533;SDS011;760;48.822;9.304;2022-09-29T20:41:12;4.70;;;4.20;;
1533;SDS011;760;48.822;9.304;2022-09-29T20:43:38;7.22;;;4.18;;
1533;SDS011;760;48.822;9.304;2022-09-29T20:46:08;4.80;;;4.00;;
1533;SDS011;760;48.822;9.304;2022-09-29T20:48:35;5.60;;;5.00;;
1533;SDS011;760;48.822;9.304;2022-09-29T20:51:03;4.43;;;4.05;;
1533;SDS011;760;48.822;9.304;2022-09-29T20:53:30;4.03;;;3.72;;
1533;SDS011;760;48.822;9.304;2022-09-29T20:56:00;5.25;;;3.70;;
1533;SDS011;760;48.822;9.304;2022-09-29T20:58:33;3.85;;;3.53;;
1533;SDS011;760;48.822;9.304;2022-09-29T21:03:55;4.15;;;3.45;;
1533;SDS011;760;48.822;9.304;2022-09-29T21:06:26;4.40;;;4.00;;
1533;SDS011;760;48.822;9.304;2022-09-29T21:08:53;5.13;;;3.45;;
1533;SDS011;760;48.822;9.304;2022-09-29T21:11:19;4.40;;;3.67;;
1533;SDS011;760;48.822;9.304;2022-09-29T21:13:47;4.40;;;4.00;;
1533;SDS011;760;48.822;9.304;2022-09-29T21:16:13;5.07;;;4.22;;
1533;SDS011;760;48.822;9.304;2022-09-29T21:18:39;3.33;;;2.77;;
1533;SDS011;760;48.822;9.304;2022-09-29T21:21:05;3.40;;;3.10;;
1533;SDS011;760;48.822;9.304;2022-09-29T21:23:32;5.88;;;3.78;;
1533;SDS011;760;48.822;9.304;2022-09-29T21:28:38;3.88;;;3.13;;
1533;SDS011;760;48.822;9.304;2022-09-29T21:31:09;5.88;;;3.90;;
1533;SDS011;760;48.822;9.304;2022-09-29T21:33:38;4.72;;;3.25;;
1533;SDS011;760;48.822;9.304;2022-09-29T21:36:06;3.65;;;3.28;;
1533;SDS011;760;48.822;9.304;2022-09-29T21:38:34;6.53;;;4.13;;
1533;SDS011;760;48.822;9.304;2022-09-29T21:41:20;3.80;;;3.42;;
1533;SDS011;760;48.822;9.304;2022-09-29T21:43:51;4.18;;;3.53;;
1533;SDS011;760;48.822;9.304;2022-09-29T21:46:19;6.50;;;3.30;;
1533;SDS011;760;48.822;9.304;2022-09-29T21:48:50;2.83;;;2.63;;
1533;SDS011;760;48.822;9.304;2022-09-29T21:51:17;4.78;;;3.50;;
1533;SDS011;760;48.822;9.304;2022-09-29T21:53:47;3.90;;;3.60;;
1533;SDS011;760;48.822;9.304;2022-09-29T21:56:16;3.50;;;3.20;;
1533;SDS011;760;48.822;9.304;2022-09-29T21:58:44;5.43;;;4.00;;
